createdAt,value
2022-12-02T00:01:44.021Z,9.95
2022-12-02T00:04:27.879Z,8.57
2022-12-02T00:06:57.531Z,10.75
2022-12-02T00:09:35.858Z,9.13
2022-12-02T00:12:25.291Z,8.20
2022-12-02T00:15:01.422Z,8.88
2022-12-02T00:17:32.107Z,10.38
2022-12-02T00:19:59.361Z,9.98
2022-12-02T00:22:26.507Z,8.00
2022-12-02T00:24:54.043Z,8.27
2022-12-02T00:27:21.457Z,8.15
2022-12-02T00:29:48.685Z,9.05
2022-12-02T00:32:16.523Z,8.05
2022-12-02T00:34:43.953Z,9.05
2022-12-02T00:37:11.154Z,10.10
2022-12-02T00:39:38.504Z,8.63
2022-12-02T00:42:05.664Z,8.55
2022-12-02T00:44:51.617Z,9.07
2022-12-02T00:47:24.092Z,7.93
2022-12-02T00:49:51.412Z,11.65
2022-12-02T00:52:20.270Z,8.43
2022-12-02T00:54:47.649Z,8.65
2022-12-02T00:57:21.131Z,8.88
2022-12-02T00:59:48.478Z,8.50
2022-12-02T01:02:18.185Z,8.55
2022-12-02T01:04:47.749Z,10.00
2022-12-02T01:07:16.829Z,8.95
2022-12-02T01:09:43.937Z,9.50
2022-12-02T01:12:11.699Z,8.80
2022-12-02T01:14:38.829Z,8.52
2022-12-02T01:17:05.899Z,8.77
2022-12-02T01:19:32.974Z,8.50
2022-12-02T01:22:00.104Z,9.40
2022-12-02T01:24:27.140Z,10.05
2022-12-02T01:26:55.392Z,7.47
2022-12-02T01:29:22.580Z,9.75
2022-12-02T01:31:49.575Z,7.88
2022-12-02T01:34:16.686Z,9.68
2022-12-02T01:36:43.993Z,11.00
2022-12-02T01:39:11.183Z,15.30
2022-12-02T01:41:38.483Z,8.27
2022-12-02T01:44:05.902Z,9.35
2022-12-02T01:46:33.109Z,9.18
2022-12-02T01:49:00.384Z,8.75
2022-12-02T01:51:30.055Z,14.05
2022-12-02T01:53:57.408Z,8.43
2022-12-02T01:56:27.630Z,9.50
2022-12-02T02:06:44.167Z,11.77
2022-12-02T02:09:15.900Z,10.73
2022-12-02T02:12:01.024Z,9.10
2022-12-02T02:14:28.250Z,10.40
2022-12-02T02:16:55.547Z,8.73
2022-12-02T02:19:22.724Z,9.20
2022-12-02T02:21:53.825Z,7.30
2022-12-02T02:24:21.367Z,8.35
2022-12-02T02:26:55.618Z,7.00
2022-12-02T02:29:22.786Z,7.18
2022-12-02T02:31:50.752Z,7.10
2022-12-02T02:34:20.044Z,6.68
2022-12-02T02:36:47.107Z,7.07
2022-12-02T02:39:16.586Z,8.88
2022-12-02T02:44:11.938Z,8.23
2022-12-02T02:46:41.903Z,14.68
2022-12-02T02:49:18.271Z,16.15
2022-12-02T02:54:15.423Z,9.25
2022-12-02T02:59:17.069Z,6.75
2022-12-02T03:01:47.573Z,6.43
2022-12-02T03:04:17.761Z,5.72
2022-12-02T03:06:46.286Z,6.88
2022-12-02T03:09:16.049Z,6.55
2022-12-02T03:11:46.707Z,5.57
2022-12-02T03:14:17.484Z,6.00
2022-12-02T03:16:46.613Z,6.35
2022-12-02T03:19:14.174Z,7.00
2022-12-02T03:21:43.543Z,7.47
2022-12-02T03:24:11.503Z,6.00
2022-12-02T03:26:44.570Z,5.30
2022-12-02T03:29:13.985Z,6.85
2022-12-02T03:31:43.422Z,10.23
2022-12-02T03:34:11.323Z,9.30
2022-12-02T03:36:44.792Z,8.40
2022-12-02T03:39:12.016Z,9.23
2022-12-02T03:41:40.809Z,9.15
2022-12-02T03:44:08.302Z,8.48
2022-12-02T03:46:35.761Z,9.50
2022-12-02T03:49:06.653Z,8.90
2022-12-02T03:51:35.030Z,10.10
2022-12-02T03:54:04.962Z,9.88
2022-12-02T03:56:40.094Z,10.68
2022-12-02T03:59:07.829Z,9.55
2022-12-02T04:01:37.745Z,10.35
2022-12-02T04:04:05.047Z,9.68
2022-12-02T04:06:35.492Z,10.73
2022-12-02T04:09:03.152Z,10.75
2022-12-02T04:11:30.330Z,11.75
2022-12-02T04:13:57.560Z,11.77
2022-12-02T04:16:29.687Z,11.40
2022-12-02T04:18:57.068Z,11.95
2022-12-02T04:21:29.943Z,11.55
2022-12-02T04:24:00.402Z,10.57
2022-12-02T04:26:30.962Z,11.73
2022-12-02T04:31:28.457Z,10.88
2022-12-02T04:36:28.423Z,10.85
2022-12-02T04:38:55.900Z,12.50
2022-12-02T04:41:26.020Z,12.02
2022-12-02T04:43:53.209Z,10.82
2022-12-02T04:46:26.038Z,10.40
2022-12-02T04:48:53.257Z,10.45
2022-12-02T04:51:23.067Z,8.75
2022-12-02T04:53:52.801Z,12.63
2022-12-02T04:56:24.979Z,12.27
2022-12-02T04:58:54.490Z,11.27
2022-12-02T05:01:24.016Z,10.77
2022-12-02T05:03:51.365Z,10.02
2022-12-02T05:06:23.486Z,11.73
2022-12-02T05:08:51.202Z,12.50
2022-12-02T05:11:20.911Z,12.65
2022-12-02T05:13:48.011Z,11.30
2022-12-02T05:16:15.584Z,11.15
2022-12-02T05:18:42.832Z,11.93
2022-12-02T05:21:09.980Z,10.18
2022-12-02T05:23:37.310Z,10.60
2022-12-02T05:26:07.281Z,11.82
2022-12-02T05:28:34.640Z,12.40
2022-12-02T05:31:07.323Z,12.20
2022-12-02T05:33:34.573Z,11.35
2022-12-02T05:36:05.336Z,11.25
2022-12-02T05:38:32.629Z,10.98
2022-12-02T05:41:01.836Z,12.73
2022-12-02T05:43:38.079Z,11.85
2022-12-02T05:46:24.222Z,12.20
2022-12-02T05:48:51.660Z,12.23
2022-12-02T05:51:22.080Z,11.20
2022-12-02T05:56:30.190Z,11.70
2022-12-02T05:59:05.672Z,11.05
2022-12-02T06:01:40.057Z,12.95
2022-12-02T06:04:19.677Z,12.13
2022-12-02T06:06:47.509Z,13.48
2022-12-02T06:09:16.873Z,12.85
2022-12-02T06:11:45.222Z,18.15
2022-12-02T06:14:35.869Z,17.67
2022-12-02T06:17:15.618Z,13.43
2022-12-02T06:19:53.704Z,9.93
2022-12-02T06:22:29.103Z,8.45
2022-12-02T06:24:58.453Z,10.13
2022-12-02T06:27:31.265Z,10.48
2022-12-02T06:30:15.046Z,10.32
2022-12-02T06:32:50.532Z,15.18
2022-12-02T06:35:33.709Z,12.00
2022-12-02T06:38:03.827Z,10.55
2022-12-02T06:40:34.232Z,10.32
2022-12-02T06:50:31.659Z,8.77
2022-12-02T06:58:34.129Z,9.48
2022-12-02T07:01:39.324Z,10.75
2022-12-02T07:04:09.087Z,17.02
2022-12-02T07:06:43.476Z,19.20
2022-12-02T07:09:35.331Z,18.10
2022-12-02T07:12:02.743Z,9.65
2022-12-02T07:14:57.230Z,10.50
2022-12-02T07:17:39.075Z,9.80
2022-12-02T07:20:09.092Z,11.07
2022-12-02T07:22:56.846Z,10.73
2022-12-02T07:25:44.156Z,11.50
2022-12-02T07:28:35.826Z,10.95
2022-12-02T07:31:25.635Z,10.38
2022-12-02T07:33:53.140Z,10.00
2022-12-02T07:36:22.824Z,9.80
2022-12-02T07:39:06.698Z,10.98
2022-12-02T07:41:37.099Z,9.48
2022-12-02T07:44:10.420Z,10.40
2022-12-02T07:46:43.165Z,10.30
2022-12-02T07:49:12.764Z,11.52
2022-12-02T07:51:40.137Z,11.15
2022-12-02T07:54:07.330Z,10.23
2022-12-02T07:56:37.668Z,10.65
2022-12-02T07:59:14.347Z,10.52
2022-12-02T08:01:47.366Z,11.23
2022-12-02T08:04:17.784Z,9.38
2022-12-02T08:06:45.452Z,10.63
2022-12-02T08:09:14.675Z,8.63
2022-12-02T08:11:50.354Z,8.75
2022-12-02T08:16:50.162Z,8.80
2022-12-02T08:19:25.979Z,9.35
2022-12-02T08:21:55.645Z,8.50
2022-12-02T08:24:22.860Z,12.30
2022-12-02T08:26:55.790Z,7.88
2022-12-02T08:29:25.988Z,9.35
2022-12-02T08:34:20.903Z,9.05
2022-12-02T08:36:49.436Z,9.30
2022-12-02T08:39:19.257Z,10.55
2022-12-02T08:41:47.004Z,8.60
2022-12-02T08:44:14.726Z,8.73
2022-12-02T08:46:43.904Z,11.80
2022-12-02T08:49:11.052Z,9.82
2022-12-02T08:51:44.127Z,8.93
2022-12-02T08:54:11.530Z,14.05
2022-12-02T08:56:49.558Z,14.27
2022-12-02T08:59:19.544Z,14.15
2022-12-02T09:01:51.097Z,10.80
2022-12-02T09:04:27.624Z,10.10
2022-12-02T09:06:57.315Z,10.05
2022-12-02T09:09:33.701Z,9.38
2022-12-02T09:12:04.966Z,9.48
2022-12-02T09:14:35.152Z,7.82
2022-12-02T09:17:03.695Z,8.48
2022-12-02T09:19:31.333Z,8.45
2022-12-02T09:22:04.675Z,7.88
2022-12-02T09:24:38.101Z,8.32
2022-12-02T09:27:05.944Z,8.00
2022-12-02T09:29:40.068Z,8.05
2022-12-02T09:32:12.867Z,9.48
2022-12-02T09:34:45.770Z,8.05
2022-12-02T09:37:18.986Z,8.27
2022-12-02T09:39:48.591Z,9.52
2022-12-02T09:42:36.645Z,8.73
2022-12-02T09:45:30.802Z,9.68
2022-12-02T09:47:59.478Z,8.00
2022-12-02T09:50:37.977Z,8.30
2022-12-02T09:53:08.066Z,8.48
2022-12-02T09:58:18.227Z,7.60
2022-12-02T10:00:56.109Z,8.52
2022-12-02T10:03:27.275Z,7.90
2022-12-02T10:06:08.164Z,8.20
2022-12-02T10:08:57.803Z,8.35
2022-12-02T10:14:24.804Z,7.15
2022-12-02T10:16:58.987Z,8.95
2022-12-02T10:19:26.619Z,7.32
2022-12-02T10:21:56.297Z,8.52
2022-12-02T10:24:45.688Z,8.68
2022-12-02T10:27:34.732Z,6.60
2022-12-02T10:30:19.812Z,7.30
2022-12-02T10:33:08.390Z,7.35
2022-12-02T10:35:58.136Z,7.35
2022-12-02T10:39:35.908Z,6.72
2022-12-02T10:41:37.822Z,6.57
2022-12-02T10:44:12.757Z,7.22
2022-12-02T10:46:48.741Z,6.70
2022-12-02T10:49:33.906Z,7.30
2022-12-02T10:52:10.896Z,7.15
2022-12-02T10:54:45.414Z,7.35
2022-12-02T10:57:21.748Z,6.75
2022-12-02T10:59:59.070Z,6.55
2022-12-02T11:02:38.385Z,7.03
2022-12-02T11:05:18.376Z,7.45
2022-12-02T11:08:05.269Z,6.55
2022-12-02T11:10:43.751Z,5.93
2022-12-02T11:13:14.020Z,7.05
2022-12-02T11:15:54.078Z,6.78
2022-12-02T11:18:29.097Z,7.40
2022-12-02T11:21:04.862Z,5.88
2022-12-02T11:23:33.867Z,6.75
2022-12-02T11:26:14.000Z,6.53
2022-12-02T11:29:05.689Z,6.78
2022-12-02T11:31:36.077Z,6.22
2022-12-02T11:37:28.363Z,6.90
2022-12-02T11:39:58.394Z,6.43
2022-12-02T11:42:36.588Z,8.30
2022-12-02T11:45:16.040Z,6.68
2022-12-02T11:47:44.857Z,5.88
2022-12-02T11:50:16.000Z,7.85
2022-12-02T11:52:50.479Z,7.32
2022-12-02T11:55:34.782Z,6.22
2022-12-02T11:58:04.149Z,6.85
2022-12-02T12:00:37.939Z,6.53
2022-12-02T12:03:13.867Z,7.13
2022-12-02T12:06:08.202Z,6.88
2022-12-02T12:08:37.711Z,7.38
2022-12-02T12:11:25.117Z,7.15
2022-12-02T12:14:03.433Z,7.20
2022-12-02T12:16:39.111Z,7.28
2022-12-02T12:19:12.364Z,7.05
2022-12-02T12:21:49.185Z,8.05
2022-12-02T12:24:23.828Z,6.13
2022-12-02T12:26:52.569Z,7.65
2022-12-02T12:31:52.134Z,7.28
2022-12-02T12:34:22.504Z,7.35
2022-12-02T12:36:50.095Z,8.90
2022-12-02T12:39:18.793Z,10.70
2022-12-02T12:42:02.212Z,11.02
2022-12-02T12:44:33.276Z,9.90
2022-12-02T12:47:08.642Z,8.75
2022-12-02T12:49:38.598Z,8.38
2022-12-02T12:52:07.217Z,10.40
2022-12-02T12:54:36.054Z,8.18
2022-12-02T12:57:06.697Z,9.73
2022-12-02T12:59:34.170Z,7.90
2022-12-02T13:02:01.689Z,11.43
2022-12-02T13:04:29.227Z,8.35
2022-12-02T13:06:56.294Z,8.02
2022-12-02T13:09:26.557Z,8.98
2022-12-02T13:11:53.856Z,11.93
2022-12-02T13:14:20.919Z,8.80
2022-12-02T13:16:48.468Z,9.65
2022-12-02T13:19:15.958Z,8.88
2022-12-02T13:21:45.823Z,7.88
2022-12-02T13:24:16.133Z,10.68
2022-12-02T13:29:15.251Z,7.85
2022-12-02T13:31:49.590Z,10.60
2022-12-02T13:34:16.914Z,9.23
2022-12-02T13:36:44.447Z,12.82
2022-12-02T13:39:11.820Z,8.38
2022-12-02T13:41:46.637Z,11.18
2022-12-02T13:44:16.829Z,9.75
2022-12-02T13:46:44.207Z,10.77
2022-12-02T13:49:13.688Z,10.45
2022-12-02T13:51:43.170Z,10.07
2022-12-02T13:54:10.887Z,7.95
2022-12-02T13:56:38.381Z,7.75
2022-12-02T13:59:05.823Z,8.75
2022-12-02T14:01:40.573Z,9.20
2022-12-02T14:04:07.908Z,10.82
2022-12-02T14:06:36.183Z,10.27
2022-12-02T14:09:06.835Z,9.35
2022-12-02T14:11:44.543Z,8.00
2022-12-02T14:14:14.850Z,7.95
2022-12-02T14:16:47.923Z,9.00
2022-12-02T14:19:15.246Z,10.10
2022-12-02T14:21:45.576Z,7.75
2022-12-02T14:26:43.088Z,7.43
2022-12-02T14:29:10.543Z,8.52
2022-12-02T14:31:40.932Z,8.07
2022-12-02T14:36:43.758Z,7.72
2022-12-02T14:39:12.039Z,9.88
2022-12-02T14:41:44.452Z,7.80
2022-12-02T14:44:11.671Z,8.32
2022-12-02T14:46:41.788Z,6.78
2022-12-02T14:49:38.230Z,8.88
2022-12-02T14:51:58.938Z,8.82
2022-12-02T14:54:29.267Z,8.35
2022-12-02T14:56:56.394Z,7.78
2022-12-02T14:59:23.669Z,7.85
2022-12-02T15:01:56.704Z,9.77
2022-12-02T15:04:27.035Z,7.38
2022-12-02T15:06:54.286Z,9.18
2022-12-02T15:09:21.411Z,7.55
2022-12-02T15:11:48.693Z,11.05
2022-12-02T15:14:17.172Z,10.65
2022-12-02T15:16:46.745Z,9.65
2022-12-02T15:21:44.899Z,6.18
2022-12-02T15:24:12.400Z,8.45
2022-12-02T15:26:42.588Z,10.63
2022-12-02T15:29:10.054Z,9.15
2022-12-02T15:31:37.531Z,8.32
2022-12-02T15:34:04.876Z,8.40
2022-12-02T15:36:32.552Z,8.85
2022-12-02T15:38:59.791Z,11.43
2022-12-02T15:41:32.871Z,12.27
2022-12-02T15:44:00.316Z,8.60
2022-12-02T15:46:28.219Z,9.38
2022-12-02T15:48:55.913Z,8.32
2022-12-02T15:51:23.445Z,5.32
2022-12-02T15:53:51.307Z,8.60
2022-12-02T15:56:21.048Z,6.25
2022-12-02T15:58:50.555Z,8.13
2022-12-02T16:01:18.075Z,7.95
2022-12-02T16:03:45.416Z,8.10
2022-12-02T16:06:12.733Z,7.07
2022-12-02T16:08:40.160Z,9.23
2022-12-02T16:11:07.932Z,9.05
2022-12-02T16:13:35.472Z,9.80
2022-12-02T16:16:02.968Z,6.32
2022-12-02T16:18:30.795Z,7.43
2022-12-02T16:21:01.540Z,9.65
2022-12-02T16:23:29.014Z,10.10
2022-12-02T16:25:58.461Z,8.65
2022-12-02T16:28:25.939Z,6.07
2022-12-02T16:30:53.300Z,8.20
2022-12-02T16:33:20.810Z,7.25
2022-12-02T16:35:54.939Z,9.40
2022-12-02T16:38:22.185Z,7.70
2022-12-02T16:40:49.236Z,8.30
2022-12-02T16:43:16.499Z,8.82
2022-12-02T16:45:49.389Z,7.53
2022-12-02T16:48:17.072Z,9.80
2022-12-02T16:50:48.909Z,7.25
2022-12-02T16:53:20.173Z,6.63
2022-12-02T16:55:47.402Z,6.38
2022-12-02T16:58:14.548Z,7.05
2022-12-02T17:00:42.133Z,5.75
2022-12-02T17:03:09.259Z,7.47
2022-12-02T17:05:39.633Z,10.13
2022-12-02T17:08:07.140Z,6.85
2022-12-02T17:10:34.795Z,7.50
2022-12-02T17:13:03.162Z,4.60
2022-12-02T17:15:35.992Z,6.70
2022-12-02T17:18:07.692Z,8.68
2022-12-02T17:20:34.827Z,10.02
2022-12-02T17:23:03.135Z,8.18
2022-12-02T17:25:30.198Z,8.65
2022-12-02T17:27:57.246Z,7.35
2022-12-02T17:30:26.838Z,9.50
2022-12-02T17:32:57.001Z,7.22
2022-12-02T17:35:27.739Z,6.65
2022-12-02T17:37:54.758Z,8.20
2022-12-02T17:40:24.173Z,8.50
2022-12-02T17:42:51.262Z,8.07
2022-12-02T17:45:21.443Z,8.07
2022-12-02T17:47:57.603Z,8.40
2022-12-02T17:50:24.733Z,9.48
2022-12-02T17:52:51.935Z,11.13
2022-12-02T17:55:19.774Z,9.27
2022-12-02T17:57:49.222Z,11.50
2022-12-02T18:00:21.977Z,10.23
2022-12-02T18:02:49.371Z,11.63
2022-12-02T18:05:16.540Z,10.38
2022-12-02T18:07:43.716Z,6.57
2022-12-02T18:10:14.307Z,13.02
2022-12-02T18:12:43.583Z,12.05
2022-12-02T18:15:19.918Z,10.60
2022-12-02T18:17:50.897Z,13.13
2022-12-02T18:20:18.135Z,9.55
2022-12-02T18:22:45.937Z,9.18
2022-12-02T18:25:13.233Z,11.70
2022-12-02T18:27:40.458Z,12.00
2022-12-02T18:30:16.958Z,13.90
2022-12-02T18:32:46.851Z,8.15
2022-12-02T18:35:17.807Z,12.02
2022-12-02T18:37:45.690Z,11.00
2022-12-02T18:40:22.294Z,11.13
2022-12-02T18:42:49.931Z,11.32
2022-12-02T18:45:20.144Z,12.95
2022-12-02T18:47:47.210Z,10.38
2022-12-02T18:50:22.447Z,12.25
2022-12-02T18:52:49.599Z,11.52
2022-12-02T18:55:16.758Z,10.45
2022-12-02T18:57:44.021Z,10.05
2022-12-02T19:00:20.855Z,10.07
2022-12-02T19:05:23.471Z,12.55
2022-12-02T19:07:51.014Z,11.45
2022-12-02T19:10:23.443Z,10.02
2022-12-02T19:12:50.474Z,8.55
2022-12-02T19:15:21.217Z,14.88
2022-12-02T19:17:48.538Z,16.13
2022-12-02T19:20:15.851Z,13.50
2022-12-02T19:22:45.287Z,12.98
2022-12-02T19:25:13.627Z,12.70
2022-12-02T19:27:57.917Z,13.57
2022-12-02T19:30:26.834Z,12.15
2022-12-02T19:32:54.402Z,10.77
2022-12-02T19:35:24.711Z,13.38
2022-12-02T19:37:53.136Z,9.52
2022-12-02T19:40:23.457Z,11.80
2022-12-02T19:42:50.764Z,10.43
2022-12-02T19:45:17.830Z,9.13
2022-12-02T19:47:45.030Z,7.40
2022-12-02T19:50:14.582Z,9.80
2022-12-02T19:52:43.989Z,8.80
2022-12-02T19:55:18.713Z,5.90
2022-12-02T19:57:45.972Z,9.45
2022-12-02T20:00:18.077Z,7.10
2022-12-02T20:02:49.970Z,6.57
2022-12-02T20:05:23.393Z,7.25
2022-12-02T20:07:51.071Z,10.23
2022-12-02T20:10:18.781Z,7.97
2022-12-02T20:12:46.661Z,9.82
2022-12-02T20:15:15.140Z,9.10
2022-12-02T20:17:42.940Z,6.93
2022-12-02T20:20:14.300Z,7.18
2022-12-02T20:22:41.920Z,6.65
2022-12-02T20:25:12.080Z,7.53
2022-12-02T20:27:40.952Z,8.05
2022-12-02T20:30:09.778Z,10.98
2022-12-02T20:32:38.127Z,12.07
2022-12-02T20:35:05.638Z,6.47
2022-12-02T20:37:33.913Z,8.65
2022-12-02T20:40:01.090Z,9.43
2022-12-02T20:42:28.234Z,9.13
2022-12-02T20:44:55.590Z,6.65
2022-12-02T20:47:23.149Z,7.93
2022-12-02T20:49:50.552Z,7.07
2022-12-02T20:52:18.109Z,6.35
2022-12-02T20:57:15.127Z,7.97
2022-12-02T20:59:45.559Z,8.13
2022-12-02T21:02:13.130Z,8.00
2022-12-02T21:04:42.829Z,7.00
2022-12-02T21:07:10.150Z,9.55
2022-12-02T21:09:39.910Z,7.43
2022-12-02T21:12:10.825Z,6.18
2022-12-02T21:14:40.122Z,8.82
2022-12-02T21:17:07.304Z,7.10
2022-12-02T21:19:34.502Z,9.25
2022-12-02T21:22:01.633Z,9.82
2022-12-02T21:24:29.529Z,6.60
2022-12-02T21:26:56.567Z,7.07
2022-12-02T21:29:24.817Z,10.88
2022-12-02T21:31:52.364Z,10.27
2022-12-02T21:34:19.557Z,9.57
2022-12-02T21:36:46.664Z,10.75
2022-12-02T21:39:13.787Z,9.40
2022-12-02T21:41:41.051Z,8.80
2022-12-02T21:44:08.087Z,11.90
2022-12-02T21:46:35.467Z,7.90
2022-12-02T21:49:02.978Z,9.82
2022-12-02T21:51:35.912Z,8.40
2022-12-02T21:54:06.314Z,8.13
2022-12-02T21:56:36.878Z,9.20
2022-12-02T21:59:04.508Z,12.85
2022-12-02T22:01:44.934Z,9.68
2022-12-02T22:04:16.269Z,9.80
2022-12-02T22:06:44.051Z,8.48
2022-12-02T22:09:12.114Z,12.05
2022-12-02T22:11:39.464Z,10.55
2022-12-02T22:14:07.076Z,11.88
2022-12-02T22:16:34.261Z,10.35
2022-12-02T22:19:02.538Z,7.63
2022-12-02T22:21:29.796Z,11.38
2022-12-02T22:23:56.937Z,9.45
2022-12-02T22:26:26.598Z,10.90
2022-12-02T22:28:53.810Z,13.43
2022-12-02T22:31:21.000Z,12.95
2022-12-02T22:33:48.128Z,8.27
2022-12-02T22:36:15.467Z,8.60
2022-12-02T22:38:42.600Z,11.55
2022-12-02T22:41:13.039Z,7.63
2022-12-02T22:43:40.221Z,8.60
2022-12-02T22:46:07.279Z,9.45
2022-12-02T22:48:34.487Z,6.82
2022-12-02T22:51:04.486Z,8.80
2022-12-02T22:53:32.585Z,11.65
2022-12-02T22:55:59.742Z,5.65
2022-12-02T22:58:26.920Z,6.55
2022-12-02T23:00:55.264Z,9.23
2022-12-02T23:03:23.643Z,8.65
2022-12-02T23:05:54.178Z,10.63
2022-12-02T23:10:48.713Z,10.43
2022-12-02T23:13:15.823Z,13.70
2022-12-02T23:15:43.268Z,12.10
2022-12-02T23:18:11.016Z,7.80
2022-12-02T23:20:38.257Z,11.43
2022-12-02T23:23:05.554Z,10.48
2022-12-02T23:25:36.067Z,13.25
2022-12-02T23:28:03.671Z,11.80
2022-12-02T23:30:31.088Z,10.95
2022-12-02T23:33:00.815Z,10.90
2022-12-02T23:35:28.418Z,9.90
2022-12-02T23:37:55.610Z,9.02
2022-12-02T23:40:23.356Z,12.38
2022-12-02T23:42:50.543Z,11.98
2022-12-02T23:45:17.724Z,12.70
2022-12-02T23:47:44.783Z,8.60
2022-12-02T23:50:14.705Z,10.52
2022-12-02T23:52:41.967Z,10.15
2022-12-02T23:55:10.809Z,10.25
2022-12-02T23:57:37.929Z,11.65
